Latest Weather Observations for Albion Park

IDN60801

Issued at 11:35 pm EDT Friday 31 October 2014 (issued every 30 minutes, with the page automatically refreshed every 10 minutes)

About weather observations | Map of weather stations | Latest weather observations for NSW | Other Formats
Station Details ID: 068241 Name: WOLLONGONG AIRPORT Lat: -34.56 Lon: 150.79 Height: 8.0 m
Data from the previous 72 hours. | See also: Recent months at Albion Park
Date/Time
EDT
Temp
°C
App
Temp
°C
Dew
Point
Rel
Hum
%
Delta-T
°C
Wind Press
QNH
hPa
Press
MSL
hPa
Rain
since 9 am
mm
Dir
 
Spd
km/h
Gust
km/h
Spd
kts
Gust
kts
31/11:30pm 15.4 15.9 13.9 91 0.8 SW 4 7 2 4 1006.5 1006.5 0.0
31/11:00pm 16.8 18.5 15.2 90 0.9 SW 0 0 0 0 1006.7 1006.7 0.0
31/10:30pm 17.3 19.0 15.1 87 1.3 CALM 0 6 0 3 1007.2 1007.2 0.0
31/10:00pm 18.0 19.8 15.4 85 1.5 CALM 0 0 0 0 1007.5 1007.5 0.0
31/09:30pm 18.7 20.3 15.9 84 1.7 SW 2 9 1 5 1007.6 1007.6 0.0
31/09:00pm 18.9 19.8 16.7 87 1.3 SW 7 9 4 5 1007.5 1007.5 0.0
31/08:30pm 20.0 22.3 17.6 86 1.5 SW 2 7 1 4 1007.4 1007.4 0.0
31/08:00pm 20.5 22.7 17.5 83 1.8 SW 2 6 1 3 1007.2 1007.2 0.0
31/07:30pm 22.3 23.9 17.9 76 2.7 E 6 7 3 4 1007.1 1007.1 0.0
31/07:00pm 24.1 25.5 17.8 68 3.9 E 7 9 4 5 1007.0 1007.0 0.0
31/06:30pm 25.5 27.2 18.4 65 4.5 S 7 11 4 6 1006.8 1006.8 0.0
31/06:00pm 24.9 26.0 17.9 65 4.4 ENE 9 15 5 8 1006.7 1006.7 0.0
31/05:30pm 25.0 24.8 16.7 60 5.1 ENE 13 17 7 9 1006.7 1006.7 0.0
31/05:00pm 25.0 25.0 17.2 62 4.9 ENE 13 19 7 10 1006.7 1006.7 0.0
31/04:30pm 24.7 24.6 17.9 66 4.3 NE 15 20 8 11 1006.6 1006.6 0.0
31/04:00pm 25.2 24.4 17.9 64 4.6 ENE 19 24 10 13 1006.9 1006.9 0.0
31/03:30pm 24.9 23.5 16.6 60 5.1 ENE 19 24 10 13 1007.3 1007.3 0.0
31/03:00pm 25.3 24.5 18.0 64 4.6 NE 19 24 10 13 1007.9 1007.9 0.0
31/02:30pm 25.0 24.6 18.0 65 4.4 NE 17 22 9 12 1008.4 1008.4 0.0
31/02:00pm 24.1 24.1 19.0 73 3.3 NE 17 22 9 12 1009.0 1009.0 0.0
31/01:30pm 23.8 23.7 18.7 73 3.2 NE 17 20 9 11 1009.6 1009.6 0.0
31/01:00pm 23.7 23.5 18.4 72 3.3 NE 17 20 9 11 1009.9 1009.9 0.0
31/12:30pm 23.9 23.3 18.5 72 3.4 NE 19 22 10 12 1010.4 1010.4 0.0
31/12:00pm 23.6 22.6 17.6 69 3.7 NE 19 24 10 13 1011.1 1011.1 0.0
31/11:30am 23.3 22.6 17.3 69 3.7 NE 17 22 9 12 1011.7 1011.7 0.0
31/11:00am 23.7 23.3 17.2 67 4.0 NE 15 19 8 10 1012.1 1012.1 0.0
31/10:30am 23.8 23.7 17.8 69 3.7 NE 15 20 8 11 1012.7 1012.7 0.0
31/10:00am 23.4 23.8 16.4 64 4.3 NE 9 13 5 7 1012.9 1012.9 0.0
31/09:30am 21.7 21.8 16.6 73 3.1 NE 11 15 6 8 1013.0 1013.0 0.0
31/09:00am 21.5 22.0 17.5 78 2.5 ENE 11 13 6 7 1013.2 1013.2 0.0
31/08:30am 20.5 21.4 16.7 79 2.3 W 7 11 4 6 1013.1 1013.1 0.0
31/08:00am 17.9 19.8 15.7 87 1.3 CALM 0 0 0 0 1012.9 1012.9 0.0
31/07:30am 15.1 16.4 14.0 93 0.6 CALM 0 0 0 0 1012.9 1012.9 0.0
31/07:00am 13.6 14.5 13.0 96 0.3 CALM 0 0 0 0 1013.0 1013.0 0.0
31/06:30am 11.4 11.7 10.9 97 0.3 CALM 0 0 0 0 1013.0 1013.0 0.0
31/06:00am 10.9 11.0 10.3 96 0.3 CALM 0 0 0 0 1012.7 1012.7 0.0
31/05:30am 11.0 11.1 10.2 95 0.4 CALM 0 0 0 0 1012.6 1012.6 0.0
31/05:00am 11.1 11.2 10.3 95 0.4 CALM 0 0 0 0 1012.5 1012.5 0.0
31/04:30am 11.1 10.8 10.0 93 0.6 W 2 6 1 3 1012.5 1012.5 0.0
31/04:00am 11.4 9.8 10.3 93 0.6 W 9 11 5 6 1012.8 1012.8 0.0
31/03:30am 11.0 9.7 10.1 94 0.5 W 7 9 4 5 1013.0 1013.0 0.0
31/03:00am 11.4 11.5 10.0 91 0.7 CALM 0 0 0 0 1013.0 1013.0 0.0
31/02:30am 11.4 11.4 9.7 89 0.9 CALM 0 0 0 0 1013.1 1013.1 0.0
31/02:00am 11.9 11.9 9.8 87 1.1 CALM 0 0 0 0 1013.3 1013.3 0.0
31/01:30am 11.7 10.0 9.8 88 1.0 W 9 9 5 5 1013.7 1013.7 0.0
31/01:00am 12.0 10.9 10.1 88 1.0 W 6 9 3 5 1013.8 1013.8 0.0
31/12:30am 13.0 13.2 10.7 86 1.2 CALM 0 0 0 0 1014.1 1014.1 0.0
31/12:00am 12.8 11.7 10.7 87 1.1 W 7 7 4 4 1014.1 1014.1 0.0
 
Date/Time
EDT
Temp
°C
App
Temp
°C
Dew
Point
Rel
Hum
%
Delta-T
°C
Wind Press
QNH
hPa
Press
MSL
hPa
Rain
since 9 am
mm
Dir
 
Spd
km/h
Gust
km/h
Spd
kts
Gust
kts
30/11:30pm 13.8 13.4 11.0 83 1.5 W 4 7 2 4 1014.0 1014.0 0.0
30/11:00pm 14.4 13.4 11.0 80 1.8 W 7 9 4 5 1014.0 1014.0 0.0
30/10:30pm 15.0 14.2 11.8 81 1.7 W 7 9 4 5 1014.0 1014.0 0.0
30/10:00pm 15.2 14.0 11.6 79 1.9 W 9 11 5 6 1013.9 1013.9 0.0
30/09:30pm 15.7 14.7 12.3 80 1.9 W 9 11 5 6 1013.8 1013.8 0.0
30/09:00pm 16.5 16.1 12.3 76 2.3 W 6 7 3 4 1013.6 1013.6 0.0
30/08:30pm 17.6 16.7 12.7 73 2.7 W 9 11 5 6 1013.3 1013.3 0.0
30/08:00pm 18.5 17.6 12.5 68 3.3 W 9 9 5 5 1013.0 1013.0 0.0
30/07:30pm 22.1 22.4 15.9 68 3.7 NE 9 11 5 6 1012.5 1012.5 0.0
30/07:00pm 23.2 21.6 11.6 48 6.5 NE 11 13 6 7 1012.1 1012.1 0.0
30/06:30pm 24.0 22.3 11.3 45 7.1 NE 11 13 6 7 1011.8 1011.8 0.0
30/06:00pm 24.7 23.4 12.6 47 7.0 NE 11 15 6 8 1011.6 1011.6 0.0
30/05:30pm 25.0 22.3 8.9 36 8.7 NE 13 17 7 9 1011.4 1011.4 0.0
30/05:00pm 24.7 21.9 11.3 43 7.5 NE 17 20 9 11 1011.5 1011.5 0.0
30/04:30pm 25.2 22.5 11.7 43 7.7 NE 17 24 9 13 1011.3 1011.3 0.0
30/04:00pm 25.7 22.9 11.5 41 8.1 E 17 24 9 13 1011.1 1011.1 0.0
30/03:30pm 26.0 22.1 9.4 35 9.1 ENE 20 24 11 13 1011.3 1011.3 0.0
30/03:00pm 26.6 22.9 10.3 36 9.1 E 20 26 11 14 1011.4 1011.4 0.0
30/02:30pm 26.6 23.2 10.7 37 8.9 E 19 26 10 14 1011.8 1011.8 0.0
30/02:00pm 27.5 24.1 11.1 36 9.3 E 20 28 11 15 1011.8 1011.8 0.0
30/01:30pm 29.3 26.8 8.4 27 11.5 WSW 11 24 6 13 1012.1 1012.1 0.0
30/01:00pm 28.7 24.3 7.3 26 11.5 W 20 30 11 16 1012.3 1012.3 0.0
30/12:30pm 28.6 24.3 9.3 30 10.7 W 22 28 12 15 1012.6 1012.6 0.0
30/12:00pm 27.5 23.0 8.4 30 10.4 WSW 22 30 12 16 1013.1 1013.1 0.0
30/11:30am 27.6 22.3 8.5 30 10.4 W 26 39 14 21 1013.2 1013.2 0.0
30/11:00am 26.9 24.3 9.3 33 9.7 NW 13 22 7 12 1013.7 1013.7 0.0
30/10:30am 25.6 23.8 9.4 36 8.9 NW 9 17 5 9 1014.1 1014.1 0.0
30/10:00am 25.0 22.4 9.3 37 8.5 W 13 22 7 12 1014.3 1014.3 0.0
30/09:30am 23.8 22.9 11.2 45 7.1 NW 7 13 4 7 1014.4 1014.4 0.0
30/09:00am 23.0 20.7 10.4 45 6.9 NNW 13 19 7 10 1014.6 1014.6 0.0
30/08:30am 21.8 21.2 13.4 59 4.8 NNW 9 15 5 8 1014.8 1014.8 0.0
30/08:00am 18.4 18.4 14.3 77 2.4 NW 7 9 4 5 1015.0 1015.0 0.0
30/07:30am 15.5 15.6 14.0 91 0.8 W 6 9 3 5 1015.0 1015.0 0.0
30/07:00am 13.1 14.0 12.8 98 0.2 CALM 0 0 0 0 1014.8 1014.8 0.0
30/06:30am 11.9 12.3 11.4 97 0.3 CALM 0 0 0 0 1014.7 1014.7 0.0
30/06:00am 12.1 11.4 11.5 96 0.3 W 6 7 3 4 1014.6 1014.6 0.0
30/05:30am 13.0 13.8 12.4 96 0.3 CALM 0 4 0 2 1014.5 1014.5 0.0
30/05:00am 13.4 13.1 12.8 96 0.3 W 6 9 3 5 1014.6 1014.6 0.0
30/04:30am 13.5 13.1 12.4 93 0.6 W 6 11 3 6 1014.4 1014.4 0.0
30/04:00am 15.1 14.4 13.1 88 1.1 WNW 9 13 5 7 1014.6 1014.6 0.0
30/03:30am 17.6 16.8 13.9 79 2.1 N 11 15 6 8 1014.7 1014.7 0.0
30/03:00am 18.1 16.5 14.0 77 2.3 N 15 22 8 12 1015.0 1015.0 0.0
30/02:30am 18.6 17.6 14.5 77 2.4 N 13 19 7 10 1015.3 1015.3 0.0
30/02:00am 18.5 18.0 14.8 79 2.1 N 11 15 6 8 1015.5 1015.5 0.0
30/01:30am 18.7 18.2 14.8 78 2.3 N 11 13 6 7 1015.7 1015.7 0.0
30/01:00am 18.8 18.3 14.9 78 2.3 NNE 11 15 6 8 1016.0 1016.0 0.0
30/12:30am 18.8 18.7 14.9 78 2.3 NNE 9 13 5 7 1016.3 1016.3 0.0
30/12:00am 18.8 18.4 15.1 79 2.2 NNE 11 15 6 8 1016.6 1016.6 0.0
 
Date/Time
EDT
Temp
°C
App
Temp
°C
Dew
Point
Rel
Hum
%
Delta-T
°C
Wind Press
QNH
hPa
Press
MSL
hPa
Rain
since 9 am
mm
Dir
 
Spd
km/h
Gust
km/h
Spd
kts
Gust
kts
29/11:30pm 18.7 18.6 15.0 79 2.2 NNE 9 11 5 6 1016.7 1016.7 0.0
29/11:00pm 18.8 18.4 15.1 79 2.2 NNE 11 15 6 8 1016.8 1016.8 0.0
29/10:30pm 18.8 18.4 15.1 79 2.2 N 11 15 6 8 1016.8 1016.8 0.0
29/10:00pm 18.8 18.4 15.3 80 2.1 N 11 17 6 9 1016.8 1016.8 0.0
29/09:30pm 18.8 18.1 15.3 80 2.1 N 13 20 7 11 1016.9 1016.9 0.0
29/09:00pm 18.8 17.6 15.1 79 2.2 N 15 20 8 11 1016.9 1016.9 0.0
29/08:30pm 18.8 16.8 14.9 78 2.3 NNE 19 24 10 13 1016.6 1016.6 0.0
29/08:00pm 18.8 17.2 14.9 78 2.3 NNE 17 24 9 13 1016.5 1016.5 0.0
29/07:30pm 18.8 17.5 14.9 78 2.3 NNE 15 24 8 13 1016.2 1016.2 0.0
29/07:22pm 18.8 17.1 14.7 77 2.4 NNE 17 24 9 13 1016.1 1016.1 0.0
29/07:00pm 18.7 16.4 14.6 77 2.4 NE 20 26 11 14 1015.9 1015.9 0.0
29/06:30pm 18.9 16.8 14.6 76 2.5 NE 19 28 10 15 1015.8 1015.8 0.0
29/06:22pm 18.9 16.7 14.8 77 2.4 NE 20 28 11 15 1015.7 1015.7 0.0
29/06:00pm 18.9 16.6 14.6 76 2.5 NE 20 28 11 15 1015.5 1015.5 0.0
29/05:59pm 19.0 16.7 14.7 76 2.5 NE 20 28 11 15 1015.5 1015.5 0.0
29/05:30pm 18.9 16.5 14.4 75 2.6 ENE 20 28 11 15 1015.5 1015.5 0.0
29/05:00pm 18.9 16.8 14.6 76 2.5 ENE 19 24 10 13 1015.4 1015.4 0.0
29/04:30pm 18.9 16.4 14.0 73 2.8 ENE 20 26 11 14 1015.5 1015.5 0.0
29/04:20pm 19.0 16.6 14.3 74 2.7 ENE 20 26 11 14 1015.6 1015.6 0.0
29/04:00pm 19.2 16.4 14.2 73 2.9 ENE 22 30 12 16 1015.7 1015.7 0.0
29/03:30pm 19.6 16.9 14.6 73 2.9 ENE 22 28 12 15 1015.8 1015.8 0.0
29/03:11pm 19.5 17.0 14.1 71 3.1 ENE 20 26 11 14 1016.0 1016.0 0.0
29/03:00pm 19.6 17.1 14.2 71 3.1 ENE 20 30 11 16 1016.1 1016.1 0.0
29/02:30pm 20.3 18.1 14.9 71 3.2 ENE 20 28 11 15 1016.2 1016.2 0.0
29/02:00pm 20.3 17.8 14.0 67 3.6 NE 20 26 11 14 1016.5 1016.5 0.0
29/01:30pm 20.8 18.1 14.5 67 3.7 NE 22 30 12 16 1016.7 1016.7 0.0
29/01:00pm 20.9 18.4 14.1 65 3.9 NE 20 28 11 15 1016.7 1016.7 0.0
29/12:30pm 21.5 19.4 14.6 65 4.1 ENE 19 26 10 14 1017.0 1017.0 0.0
29/12:00pm 21.1 18.7 14.3 65 4.0 ENE 20 28 11 15 1017.2 1017.2 0.0
29/11:30am 20.4 17.9 13.6 65 3.9 E 19 30 10 16 1017.5 1017.5 0.0
29/11:00am 21.3 19.2 13.7 62 4.4 ESE 17 24 9 13 1017.6 1017.6 0.0
29/10:30am 21.4 19.6 13.3 60 4.6 E 15 24 8 13 1017.6 1017.6 0.0
29/10:00am 21.3 19.3 12.7 58 4.9 E 15 24 8 13 1017.6 1017.6 0.0
29/09:30am 21.2 19.3 10.4 50 5.9 ESE 11 19 6 10 1017.5 1017.5 0.0
29/09:00am 20.8 19.3 9.1 47 6.2 ESE 7 11 4 6 1017.3 1017.3 0.0
29/08:30am 19.9 15.8 8.6 48 5.9 S 20 24 11 13 1017.3 1017.3 0.0
29/08:00am 19.4 17.3 8.1 48 5.8 ESE 9 13 5 7 1017.0 1017.0 0.0
29/07:30am 18.6 16.6 8.6 52 5.2 ENE 9 15 5 8 1016.5 1016.5 0.0
29/07:00am 17.7 16.0 8.3 54 4.8 S 7 13 4 7 1016.0 1016.0 0.0
29/06:30am 16.9 14.0 8.3 57 4.4 ENE 13 17 7 9 1015.6 1015.6 0.0
29/06:00am 16.7 15.3 7.1 53 4.8 SSW 4 9 2 5 1014.8 1014.8 0.0
29/05:30am 18.1 15.4 7.2 49 5.5 S 11 26 6 14 1014.5 1014.5 0.0
29/05:00am 17.2 14.0 7.0 51 5.1 S 13 17 7 9 1014.2 1014.2 0.0
29/04:30am 16.6 13.2 7.5 55 4.6 WSW 15 20 8 11 1014.1 1014.1 0.0
29/04:00am 17.4 13.6 7.5 52 5.0 W 17 26 9 14 1013.7 1013.7 0.0
29/03:30am 18.2 13.8 7.6 50 5.4 W 20 33 11 18 1013.6 1013.6 0.0
29/03:00am 17.2 13.3 7.3 52 5.0 W 17 20 9 11 1013.4 1013.4 0.0
29/02:30am 17.3 13.8 7.4 52 5.0 W 15 20 8 11 1013.4 1013.4 0.0
29/02:00am 17.3 14.6 7.4 52 5.0 W 11 17 6 9 1013.2 1013.2 0.0
29/01:30am 16.5 14.7 7.2 54 4.6 SSW 6 9 3 5 1013.4 1013.4 0.0
29/01:00am 17.0 14.7 7.4 53 4.8 WNW 9 19 5 10 1013.5 1013.5 0.0
29/12:30am 15.3 13.1 7.8 61 3.7 SSW 9 11 5 6 1013.5 1013.5 0.0
29/12:00am 14.4 10.6 7.7 64 3.3 WSW 17 20 9 11 1013.3 1013.3 0.0

Other Formats:

Comma delimited format used in spreadsheet applications
http://www.bom.gov.au/fwo/IDN60801/IDN60801.95748.axf

JavaScript Object Notation format (JSON) in row-major order
http://www.bom.gov.au/fwo/IDN60801/IDN60801.95748.json